sensor_id;sensor_type;location;lat;lon;timestamp;temperature;humidity
2757;DHT22;1386;50.862;6.494;2022-12-29T08:40:04;10.80;99.90
2757;DHT22;1386;50.862;6.494;2022-12-29T09:02:43;11.00;99.90
2757;DHT22;1386;50.862;6.494;2022-12-29T13:21:37;11.50;99.90
2757;DHT22;1386;50.862;6.494;2022-12-29T13:24:15;11.50;99.90
2757;DHT22;1386;50.862;6.494;2022-12-29T13:26:50;11.50;99.90
2757;DHT22;1386;50.862;6.494;2022-12-29T13:29:20;11.50;99.90
2757;DHT22;1386;50.862;6.494;2022-12-29T13:31:54;11.50;99.90
2757;DHT22;1386;50.862;6.494;2022-12-29T13:34:54;11.50;99.90
2757;DHT22;1386;50.862;6.494;2022-12-29T13:37:51;11.50;99.90
2757;DHT22;1386;50.862;6.494;2022-12-29T13:40:38;11.40;99.90
2757;DHT22;1386;50.862;6.494;2022-12-29T13:43:09;11.50;99.90
2757;DHT22;1386;50.862;6.494;2022-12-29T18:17:27;9.20;99.90
2757;DHT22;1386;50.862;6.494;2022-12-29T18:19:54;9.10;99.90
2757;DHT22;1386;50.862;6.494;2022-12-29T18:22:22;9.10;99.90
2757;DHT22;1386;50.862;6.494;2022-12-29T18:24:49;9.10;99.90
2757;DHT22;1386;50.862;6.494;2022-12-29T18:27:16;9.00;99.90
2757;DHT22;1386;50.862;6.494;2022-12-29T18:29:45;8.90;99.90
2757;DHT22;1386;50.862;6.494;2022-12-29T18:32:13;8.90;99.90
2757;DHT22;1386;50.862;6.494;2022-12-29T18:34:42;8.90;99.90
2757;DHT22;1386;50.862;6.494;2022-12-29T18:37:09;8.80;99.90
2757;DHT22;1386;50.862;6.494;2022-12-29T18:39:36;8.80;99.90
2757;DHT22;1386;50.862;6.494;2022-12-29T18:42:03;8.80;99.90
2757;DHT22;1386;50.862;6.494;2022-12-29T18:44:31;8.80;99.90
2757;DHT22;1386;50.862;6.494;2022-12-29T18:46:58;8.80;99.90
2757;DHT22;1386;50.862;6.494;2022-12-29T18:49:25;8.80;99.90
2757;DHT22;1386;50.862;6.494;2022-12-29T18:51:54;8.80;99.90
2757;DHT22;1386;50.862;6.494;2022-12-29T18:54:26;8.70;99.90
2757;DHT22;1386;50.862;6.494;2022-12-29T18:56:54;8.70;99.90
2757;DHT22;1386;50.862;6.494;2022-12-29T18:59:24;8.70;99.90
2757;DHT22;1386;50.862;6.494;2022-12-29T19:01:52;8.70;99.90
2757;DHT22;1386;50.862;6.494;2022-12-29T19:04:22;8.60;99.90
2757;DHT22;1386;50.862;6.494;2022-12-29T19:06:49;8.50;99.90
2757;DHT22;1386;50.862;6.494;2022-12-29T19:09:19;8.50;99.90
2757;DHT22;1386;50.862;6.494;2022-12-29T19:15:03;8.50;99.90
2757;DHT22;1386;50.862;6.494;2022-12-29T19:17:32;8.50;99.90
2757;DHT22;1386;50.862;6.494;2022-12-29T19:20:05;8.40;99.90
2757;DHT22;1386;50.862;6.494;2022-12-29T19:26:20;8.30;99.90
2757;DHT22;1386;50.862;6.494;2022-12-29T19:28:59;8.30;99.90
2757;DHT22;1386;50.862;6.494;2022-12-29T19:31:26;8.30;99.90
2757;DHT22;1386;50.862;6.494;2022-12-29T19:33:53;8.20;99.90
2757;DHT22;1386;50.862;6.494;2022-12-29T19:36:23;8.20;99.90
2757;DHT22;1386;50.862;6.494;2022-12-29T19:38:53;8.10;99.90
2757;DHT22;1386;50.862;6.494;2022-12-29T19:41:21;8.10;99.90
2757;DHT22;1386;50.862;6.494;2022-12-29T19:43:49;8.10;99.90
2757;DHT22;1386;50.862;6.494;2022-12-29T19:46:19;8.10;99.90
2757;DHT22;1386;50.862;6.494;2022-12-29T19:48:54;8.10;99.90
2757;DHT22;1386;50.862;6.494;2022-12-29T19:51:23;8.10;99.90
2757;DHT22;1386;50.862;6.494;2022-12-29T19:53:56;8.10;99.90
2757;DHT22;1386;50.862;6.494;2022-12-29T19:56:24;8.10;99.90
2757;DHT22;1386;50.862;6.494;2022-12-29T19:58:54;8.00;99.90
2757;DHT22;1386;50.862;6.494;2022-12-29T20:01:26;8.00;99.90
2757;DHT22;1386;50.862;6.494;2022-12-29T20:03:57;8.00;99.90
2757;DHT22;1386;50.862;6.494;2022-12-29T20:07:08;8.00;99.90
2757;DHT22;1386;50.862;6.494;2022-12-29T20:09:49;8.00;99.90
2757;DHT22;1386;50.862;6.494;2022-12-29T20:12:18;7.90;99.90
2757;DHT22;1386;50.862;6.494;2022-12-29T20:14:46;8.00;99.90
2757;DHT22;1386;50.862;6.494;2022-12-29T20:17:16;7.90;99.90
2757;DHT22;1386;50.862;6.494;2022-12-29T20:19:43;7.90;99.90
2757;DHT22;1386;50.862;6.494;2022-12-29T20:22:17;7.90;99.90
2757;DHT22;1386;50.862;6.494;2022-12-29T20:24:55;7.90;99.90
2757;DHT22;1386;50.862;6.494;2022-12-29T20:27:24;7.90;99.90
2757;DHT22;1386;50.862;6.494;2022-12-29T20:29:53;7.90;99.90
2757;DHT22;1386;50.862;6.494;2022-12-29T20:35:25;7.80;99.90
2757;DHT22;1386;50.862;6.494;2022-12-29T20:37:52;7.90;99.90
2757;DHT22;1386;50.862;6.494;2022-12-29T20:40:22;7.80;99.90
2757;DHT22;1386;50.862;6.494;2022-12-29T20:42:50;7.80;99.90
2757;DHT22;1386;50.862;6.494;2022-12-29T20:45:17;7.80;99.90
2757;DHT22;1386;50.862;6.494;2022-12-29T20:47:47;7.80;99.90
2757;DHT22;1386;50.862;6.494;2022-12-29T20:50:27;7.80;99.90
2757;DHT22;1386;50.862;6.494;2022-12-29T20:52:56;7.70;99.90
2757;DHT22;1386;50.862;6.494;2022-12-29T20:56:21;7.80;99.90
2757;DHT22;1386;50.862;6.494;2022-12-29T20:59:02;7.70;99.90
2757;DHT22;1386;50.862;6.494;2022-12-29T21:04:31;7.70;99.90
2757;DHT22;1386;50.862;6.494;2022-12-29T21:07:01;7.70;99.90
2757;DHT22;1386;50.862;6.494;2022-12-29T21:12:50;7.60;99.90
2757;DHT22;1386;50.862;6.494;2022-12-29T21:15:21;7.70;99.90
2757;DHT22;1386;50.862;6.494;2022-12-29T21:17:48;7.70;99.90
2757;DHT22;1386;50.862;6.494;2022-12-29T21:20:21;7.60;99.90
2757;DHT22;1386;50.862;6.494;2022-12-29T21:22:58;7.60;99.90
2757;DHT22;1386;50.862;6.494;2022-12-29T21:25:30;7.60;99.90
2757;DHT22;1386;50.862;6.494;2022-12-29T21:28:02;7.60;99.90
2757;DHT22;1386;50.862;6.494;2022-12-29T21:30:53;7.60;99.90
2757;DHT22;1386;50.862;6.494;2022-12-29T21:33:48;7.60;99.90
2757;DHT22;1386;50.862;6.494;2022-12-29T21:36:18;7.60;99.90
2757;DHT22;1386;50.862;6.494;2022-12-29T21:38:46;7.60;99.90
2757;DHT22;1386;50.862;6.494;2022-12-29T21:41:26;7.60;99.90
2757;DHT22;1386;50.862;6.494;2022-12-29T21:43:59;7.60;99.90
2757;DHT22;1386;50.862;6.494;2022-12-29T21:46:45;7.60;99.90
2757;DHT22;1386;50.862;6.494;2022-12-29T21:49:15;7.60;99.90
2757;DHT22;1386;50.862;6.494;2022-12-29T21:51:44;7.60;99.90
2757;DHT22;1386;50.862;6.494;2022-12-29T21:54:41;7.60;99.90
2757;DHT22;1386;50.862;6.494;2022-12-29T22:00:41;7.60;99.90
2757;DHT22;1386;50.862;6.494;2022-12-29T22:06:30;7.50;99.90
2757;DHT22;1386;50.862;6.494;2022-12-29T22:09:17;7.60;99.90
2757;DHT22;1386;50.862;6.494;2022-12-29T22:12:02;7.60;99.90
2757;DHT22;1386;50.862;6.494;2022-12-29T22:14:49;7.60;99.90
2757;DHT22;1386;50.862;6.494;2022-12-29T22:17:16;7.60;99.90
2757;DHT22;1386;50.862;6.494;2022-12-29T22:19:55;7.60;99.90
2757;DHT22;1386;50.862;6.494;2022-12-29T22:22:27;7.60;99.90
2757;DHT22;1386;50.862;6.494;2022-12-29T22:25:19;7.50;99.90
2757;DHT22;1386;50.862;6.494;2022-12-29T22:28:16;7.50;99.90
2757;DHT22;1386;50.862;6.494;2022-12-29T22:30:49;7.50;99.90
2757;DHT22;1386;50.862;6.494;2022-12-29T22:33:16;7.60;99.90
2757;DHT22;1386;50.862;6.494;2022-12-29T22:35:44;7.60;99.90
2757;DHT22;1386;50.862;6.494;2022-12-29T22:38:11;7.60;99.90
2757;DHT22;1386;50.862;6.494;2022-12-29T22:50:49;7.60;99.90
2757;DHT22;1386;50.862;6.494;2022-12-29T22:53:31;7.70;99.90
2757;DHT22;1386;50.862;6.494;2022-12-29T22:56:36;7.70;99.90
2757;DHT22;1386;50.862;6.494;2022-12-29T22:59:16;7.70;99.90
2757;DHT22;1386;50.862;6.494;2022-12-29T23:01:53;7.70;99.90
2757;DHT22;1386;50.862;6.494;2022-12-29T23:04:20;7.70;99.90
2757;DHT22;1386;50.862;6.494;2022-12-29T23:17:03;7.80;99.90
2757;DHT22;1386;50.862;6.494;2022-12-29T23:20:13;7.70;99.90
2757;DHT22;1386;50.862;6.494;2022-12-29T23:23:08;7.70;99.90
2757;DHT22;1386;50.862;6.494;2022-12-29T23:26:09;7.70;99.90
2757;DHT22;1386;50.862;6.494;2022-12-29T23:28:40;7.70;99.90
2757;DHT22;1386;50.862;6.494;2022-12-29T23:31:13;7.60;99.90
2757;DHT22;1386;50.862;6.494;2022-12-29T23:33:40;7.70;99.90
2757;DHT22;1386;50.862;6.494;2022-12-29T23:36:10;7.70;99.90
2757;DHT22;1386;50.862;6.494;2022-12-29T23:38:37;7.60;99.90
2757;DHT22;1386;50.862;6.494;2022-12-29T23:41:08;7.60;99.90
2757;DHT22;1386;50.862;6.494;2022-12-29T23:46:46;7.60;99.90
2757;DHT22;1386;50.862;6.494;2022-12-29T23:49:50;7.60;99.90
2757;DHT22;1386;50.862;6.494;2022-12-29T23:55:37;7.50;99.90
2757;DHT22;1386;50.862;6.494;2022-12-29T23:58:09;7.60;99.90
